createdAt,value
2017-08-21T00:01:49.731Z,28.90
2017-08-21T00:04:17.907Z,28.90
2017-08-21T00:06:46.071Z,29.00
2017-08-21T00:09:14.218Z,28.90
2017-08-21T00:11:42.340Z,29.00
2017-08-21T00:14:11.315Z,28.90
2017-08-21T00:16:39.464Z,28.90
2017-08-21T00:19:07.605Z,28.90
2017-08-21T00:21:35.760Z,28.90
2017-08-21T00:24:04.652Z,28.90
2017-08-21T00:26:33.551Z,28.90
2017-08-21T00:29:02.532Z,28.80
2017-08-21T00:31:31.516Z,28.80
2017-08-21T00:33:59.682Z,28.80
2017-08-21T00:36:27.854Z,28.80
2017-08-21T00:38:55.976Z,28.80
2017-08-21T00:41:24.098Z,28.80
2017-08-21T00:43:52.236Z,28.80
2017-08-21T00:46:20.484Z,28.80
2017-08-21T00:48:49.397Z,28.70
2017-08-21T00:51:17.531Z,28.70
2017-08-21T00:53:45.676Z,28.70
2017-08-21T00:56:13.836Z,28.80
2017-08-21T00:58:41.976Z,28.70
2017-08-21T01:01:10.860Z,28.70
2017-08-21T01:03:39.831Z,28.70
2017-08-21T01:06:08.017Z,28.70
2017-08-21T01:08:36.192Z,28.70
2017-08-21T01:11:04.320Z,28.70
2017-08-21T01:13:32.456Z,28.70
2017-08-21T01:16:01.352Z,28.70
2017-08-21T01:18:30.244Z,28.70
2017-08-21T01:20:59.145Z,28.70
2017-08-21T01:23:27.281Z,28.60
2017-08-21T01:25:55.414Z,28.60
2017-08-21T01:28:24.031Z,28.60
2017-08-21T01:30:52.168Z,28.60
2017-08-21T01:33:20.317Z,28.60
2017-08-21T01:35:49.215Z,28.60
2017-08-21T01:38:17.347Z,28.60
2017-08-21T01:40:45.468Z,28.60
2017-08-21T01:43:13.614Z,28.60
2017-08-21T01:45:42.500Z,28.60
2017-08-21T01:48:10.640Z,28.50
2017-08-21T01:50:38.771Z,28.60
2017-08-21T01:53:07.672Z,28.60
2017-08-21T01:55:35.807Z,28.50
2017-08-21T01:58:04.021Z,28.50
2017-08-21T02:00:32.228Z,28.50
2017-08-21T02:03:00.368Z,28.50
2017-08-21T02:05:28.903Z,28.50
2017-08-21T02:07:57.036Z,28.50
2017-08-21T02:10:25.193Z,28.50
2017-08-21T02:12:54.112Z,28.50
2017-08-21T02:15:22.240Z,28.50
2017-08-21T02:17:51.127Z,28.50
2017-08-21T02:20:19.283Z,28.50
2017-08-21T02:22:47.464Z,28.50
2017-08-21T02:25:15.589Z,28.50
2017-08-21T02:27:43.831Z,28.50
2017-08-21T02:30:12.792Z,28.50
2017-08-21T02:32:40.945Z,28.50
2017-08-21T02:35:09.093Z,28.50
2017-08-21T02:37:37.989Z,28.40
2017-08-21T02:40:06.148Z,28.40
2017-08-21T02:42:34.284Z,28.40
2017-08-21T02:45:02.456Z,28.40
2017-08-21T02:47:30.576Z,28.40
2017-08-21T02:49:59.488Z,28.40
2017-08-21T02:52:27.674Z,28.40
2017-08-21T02:54:55.804Z,28.40
2017-08-21T02:57:24.703Z,28.40
2017-08-21T02:59:53.616Z,28.40
2017-08-21T03:02:21.735Z,28.40
2017-08-21T03:04:49.892Z,28.40
2017-08-21T03:07:18.044Z,28.40
2017-08-21T03:09:46.171Z,28.40
2017-08-21T03:12:14.295Z,28.40
2017-08-21T03:14:42.448Z,28.40
2017-08-21T03:17:11.391Z,28.30
2017-08-21T03:19:39.556Z,28.30
2017-08-21T03:22:07.765Z,28.30
2017-08-21T03:24:35.904Z,28.30
2017-08-21T03:27:04.044Z,28.30
2017-08-21T03:29:32.172Z,28.30
2017-08-21T03:32:00.320Z,28.30
2017-08-21T03:34:28.521Z,28.30
2017-08-21T03:36:56.676Z,28.30
2017-08-21T03:39:24.800Z,28.30
2017-08-21T03:41:52.943Z,28.30
2017-08-21T03:44:21.092Z,28.30
2017-08-21T03:46:49.236Z,28.30
2017-08-21T03:49:17.386Z,28.30
2017-08-21T03:51:45.520Z,28.30
2017-08-21T03:54:13.645Z,28.30
2017-08-21T03:56:42.527Z,28.20
2017-08-21T03:59:12.144Z,28.30
2017-08-21T04:01:41.045Z,28.20
2017-08-21T04:04:09.941Z,28.30
2017-08-21T04:06:38.856Z,28.20
2017-08-21T04:09:06.984Z,28.20
2017-08-21T04:11:35.873Z,28.20
2017-08-21T04:14:03.999Z,28.20
2017-08-21T04:16:32.151Z,28.20
2017-08-21T04:19:00.297Z,28.20
2017-08-21T04:21:29.212Z,28.20
2017-08-21T04:23:57.367Z,28.20
2017-08-21T04:26:25.512Z,28.20
2017-08-21T04:28:53.640Z,28.20
2017-08-21T04:31:21.777Z,28.20
2017-08-21T04:33:49.929Z,28.20
2017-08-21T04:36:18.092Z,28.20
2017-08-21T04:38:46.239Z,28.20
2017-08-21T04:41:14.391Z,28.20
2017-08-21T04:43:43.303Z,28.20
2017-08-21T04:46:11.429Z,28.10
2017-08-21T04:48:39.548Z,28.20
2017-08-21T04:51:07.680Z,28.10
2017-08-21T04:53:36.833Z,28.10
2017-08-21T04:56:04.984Z,28.10
2017-08-21T04:58:33.880Z,28.10
2017-08-21T05:01:02.015Z,28.10
2017-08-21T05:03:30.151Z,28.10
2017-08-21T05:05:58.452Z,28.10
2017-08-21T05:08:26.568Z,28.10
2017-08-21T05:10:55.453Z,28.10
2017-08-21T05:13:24.935Z,28.10
2017-08-21T05:15:53.072Z,28.10
2017-08-21T05:18:21.188Z,28.10
2017-08-21T05:20:49.345Z,28.00
2017-08-21T05:23:17.484Z,27.90
2017-08-21T05:25:45.608Z,27.90
2017-08-21T05:28:13.752Z,27.90
2017-08-21T05:30:41.988Z,27.80
2017-08-21T05:33:10.889Z,27.70
2017-08-21T05:35:39.088Z,27.70
2017-08-21T05:38:07.232Z,27.70
2017-08-21T05:40:36.139Z,27.70
2017-08-21T05:43:04.279Z,27.70
2017-08-21T05:45:33.223Z,27.60
2017-08-21T05:48:01.391Z,27.60
2017-08-21T05:50:29.608Z,27.60
2017-08-21T05:52:57.760Z,27.60
2017-08-21T05:55:25.889Z,27.60
2017-08-21T05:57:54.027Z,27.60
2017-08-21T06:00:22.212Z,27.60
2017-08-21T06:02:50.373Z,27.60
2017-08-21T06:05:18.593Z,27.60
2017-08-21T06:07:46.743Z,27.70
2017-08-21T06:10:14.876Z,27.70
2017-08-21T06:12:43.011Z,27.70
2017-08-21T06:15:11.140Z,27.80
2017-08-21T06:17:39.275Z,27.80
2017-08-21T06:20:07.420Z,27.80
2017-08-21T06:22:36.936Z,27.80
2017-08-21T06:25:05.832Z,27.80
2017-08-21T06:27:33.955Z,27.70
2017-08-21T06:30:02.117Z,27.80
2017-08-21T06:32:35.132Z,27.70
2017-08-21T06:35:03.468Z,27.70
2017-08-21T06:37:32.304Z,27.70
2017-08-21T06:40:00.456Z,27.60
2017-08-21T06:42:28.598Z,27.60
2017-08-21T06:44:56.723Z,27.60
2017-08-21T06:47:24.857Z,27.60
2017-08-21T06:49:53.031Z,27.60
2017-08-21T06:52:21.176Z,27.60
2017-08-21T06:54:50.096Z,27.60
2017-08-21T06:57:18.248Z,27.60
2017-08-21T06:59:47.254Z,27.70
2017-08-21T07:02:15.699Z,27.60
2017-08-21T07:04:43.853Z,27.70
2017-08-21T07:07:11.988Z,27.70
2017-08-21T07:09:40.115Z,27.70
2017-08-21T07:12:08.244Z,27.70
2017-08-21T07:14:36.405Z,27.70
2017-08-21T07:17:04.620Z,27.70
2017-08-21T07:19:32.756Z,27.70
2017-08-21T07:22:00.900Z,27.70
2017-08-21T07:24:29.806Z,27.70
2017-08-21T07:26:57.949Z,27.70
2017-08-21T07:32:04.697Z,27.80
2017-08-21T07:35:08.395Z,27.80
2017-08-21T07:37:36.535Z,27.90
2017-08-21T07:40:04.677Z,27.90
2017-08-21T07:42:32.896Z,28.00
2017-08-21T07:45:01.046Z,28.00
2017-08-21T07:47:29.194Z,28.10
2017-08-21T07:49:57.304Z,28.20
2017-08-21T07:52:25.456Z,28.10
2017-08-21T07:54:53.592Z,28.10
2017-08-21T07:57:21.754Z,28.20
2017-08-21T07:59:49.896Z,28.20
2017-08-21T08:02:18.036Z,28.30
2017-08-21T08:04:46.188Z,28.40
2017-08-21T08:07:14.325Z,28.50
2017-08-21T08:09:42.453Z,28.50
2017-08-21T08:12:10.584Z,28.60
2017-08-21T08:14:38.708Z,28.60
2017-08-21T08:17:06.846Z,28.70
2017-08-21T08:19:35.014Z,28.60
2017-08-21T08:22:03.135Z,28.60
2017-08-21T08:24:31.278Z,28.70
2017-08-21T08:26:59.420Z,28.60
2017-08-21T08:29:27.772Z,28.60
2017-08-21T08:31:55.903Z,28.60
2017-08-21T08:34:24.033Z,28.60
2017-08-21T08:36:52.258Z,28.70
2017-08-21T08:39:20.422Z,28.60
2017-08-21T08:41:48.566Z,28.60
2017-08-21T08:44:16.696Z,28.60
2017-08-21T08:46:44.828Z,28.60
2017-08-21T08:49:12.980Z,28.60
2017-08-21T08:51:41.100Z,28.70
2017-08-21T08:54:09.260Z,28.70
2017-08-21T08:56:37.369Z,28.70
2017-08-21T08:59:05.516Z,28.80
2017-08-21T09:01:33.641Z,28.80
2017-08-21T09:04:01.791Z,28.80
2017-08-21T09:06:29.985Z,28.90
2017-08-21T09:08:58.133Z,28.90
2017-08-21T09:11:26.336Z,28.90
2017-08-21T09:13:54.476Z,28.90
2017-08-21T09:16:22.682Z,28.80
2017-08-21T09:18:50.840Z,28.80
2017-08-21T09:21:19.040Z,28.80
2017-08-21T09:23:47.229Z,28.90
2017-08-21T09:26:15.370Z,28.80
2017-08-21T09:28:43.560Z,28.90
2017-08-21T09:31:11.704Z,28.90
2017-08-21T09:33:39.824Z,28.90
2017-08-21T09:36:07.957Z,29.00
2017-08-21T09:38:36.109Z,29.00
2017-08-21T09:41:04.297Z,29.00
2017-08-21T09:43:32.493Z,29.00
2017-08-21T09:46:00.629Z,29.00
2017-08-21T09:48:28.832Z,29.00
2017-08-21T09:50:56.963Z,28.90
2017-08-21T09:53:25.112Z,29.00
2017-08-21T09:55:53.262Z,29.00
2017-08-21T09:58:21.436Z,29.10
2017-08-21T10:00:49.556Z,29.20
2017-08-21T10:03:17.688Z,29.30
2017-08-21T10:05:45.823Z,29.30
2017-08-21T10:10:52.736Z,29.40
2017-08-21T10:13:20.994Z,29.40
2017-08-21T10:15:49.213Z,29.50
2017-08-21T10:18:17.419Z,29.50
2017-08-21T10:20:46.495Z,29.70
2017-08-21T10:23:14.636Z,29.70
2017-08-21T10:25:42.768Z,29.70
2017-08-21T10:28:10.901Z,29.80
2017-08-21T10:30:39.028Z,29.90
2017-08-21T10:33:07.177Z,30.00
2017-08-21T10:35:35.304Z,30.00
2017-08-21T10:38:03.431Z,30.00
2017-08-21T10:40:31.588Z,30.00
2017-08-21T10:42:59.700Z,30.10
2017-08-21T10:45:27.848Z,30.10
2017-08-21T10:47:55.994Z,30.10
2017-08-21T10:50:24.120Z,30.30
2017-08-21T10:52:52.252Z,30.30
2017-08-21T10:55:20.391Z,30.40
2017-08-21T10:57:48.562Z,30.50
2017-08-21T11:00:16.695Z,30.60
2017-08-21T11:02:44.820Z,30.70
2017-08-21T11:05:12.952Z,30.80
2017-08-21T11:07:41.304Z,30.90
2017-08-21T11:10:09.447Z,31.10
2017-08-21T11:12:37.588Z,31.10
2017-08-21T11:15:06.332Z,31.20
2017-08-21T11:17:34.541Z,31.30
2017-08-21T11:20:02.759Z,31.40
2017-08-21T11:22:31.545Z,31.40
2017-08-21T11:24:59.701Z,31.50
2017-08-21T11:27:27.859Z,31.50
2017-08-21T11:29:56.017Z,31.60
2017-08-21T11:32:24.167Z,31.50
2017-08-21T11:34:52.320Z,31.50
2017-08-21T11:37:21.068Z,31.50
2017-08-21T11:39:49.217Z,31.50
2017-08-21T11:42:17.420Z,31.50
2017-08-21T11:44:45.581Z,31.50
2017-08-21T11:47:14.248Z,31.50
2017-08-21T11:49:42.419Z,31.50
2017-08-21T11:52:10.563Z,31.50
2017-08-21T11:54:38.719Z,31.50
2017-08-21T11:57:06.824Z,31.50
2017-08-21T11:59:34.969Z,31.60
2017-08-21T12:02:03.140Z,31.60
2017-08-21T12:04:31.262Z,31.60
2017-08-21T12:06:59.398Z,31.60
2017-08-21T12:09:27.532Z,31.70
2017-08-21T12:11:55.746Z,31.80
2017-08-21T12:14:23.892Z,31.90
2017-08-21T12:16:52.029Z,31.90
2017-08-21T12:19:20.167Z,32.00
2017-08-21T12:21:49.216Z,32.10
2017-08-21T12:24:17.445Z,32.10
2017-08-21T12:26:45.593Z,32.20
2017-08-21T12:29:13.777Z,32.30
2017-08-21T12:31:42.639Z,32.30
2017-08-21T12:34:10.780Z,32.40
2017-08-21T12:36:38.921Z,32.40
2017-08-21T12:39:07.082Z,32.40
2017-08-21T12:41:35.212Z,32.40
2017-08-21T12:44:04.348Z,32.40
2017-08-21T12:46:32.499Z,32.40
2017-08-21T12:49:00.642Z,32.50
2017-08-21T12:51:28.764Z,32.50
2017-08-21T12:53:56.881Z,32.50
2017-08-21T12:56:25.454Z,32.50
2017-08-21T12:58:53.599Z,32.60
2017-08-21T13:01:21.740Z,32.60
2017-08-21T13:03:49.885Z,32.70
2017-08-21T13:06:18.048Z,32.70
2017-08-21T13:08:46.190Z,32.70
2017-08-21T13:11:14.324Z,32.70
2017-08-21T13:13:42.469Z,32.70
2017-08-21T13:16:10.716Z,32.70
2017-08-21T13:18:38.840Z,32.60
2017-08-21T13:21:07.024Z,32.60
2017-08-21T13:23:35.157Z,32.60
2017-08-21T13:26:03.304Z,32.60
2017-08-21T13:28:31.472Z,32.60
2017-08-21T13:30:59.620Z,32.50
2017-08-21T13:33:27.791Z,32.50
2017-08-21T13:35:56.052Z,32.50
2017-08-21T13:38:24.236Z,32.50
2017-08-21T13:40:52.376Z,32.40
2017-08-21T13:43:20.561Z,32.40
2017-08-21T13:45:48.712Z,32.30
2017-08-21T13:48:16.833Z,32.30
2017-08-21T13:50:45.049Z,32.30
2017-08-21T13:53:13.258Z,32.30
2017-08-21T13:55:41.361Z,32.10
2017-08-21T13:58:09.508Z,32.10
2017-08-21T14:00:37.656Z,32.00
2017-08-21T14:03:05.787Z,31.90
2017-08-21T14:05:33.937Z,31.90
2017-08-21T14:08:02.073Z,31.90
2017-08-21T14:10:30.247Z,32.00
2017-08-21T14:12:58.361Z,32.00
2017-08-21T14:16:51.108Z,32.00
2017-08-21T14:19:19.254Z,32.10
2017-08-21T14:21:47.401Z,32.10
2017-08-21T14:24:15.588Z,32.10
2017-08-21T14:26:44.432Z,32.10
2017-08-21T14:29:12.577Z,32.10
2017-08-21T14:31:41.516Z,32.30
2017-08-21T14:34:09.664Z,32.20
2017-08-21T14:36:37.798Z,32.30
2017-08-21T14:39:06.321Z,32.30
2017-08-21T14:41:34.472Z,32.40
2017-08-21T14:44:02.621Z,32.40
2017-08-21T14:46:30.781Z,32.40
2017-08-21T14:48:58.940Z,32.40
2017-08-21T14:51:27.095Z,32.30
2017-08-21T14:53:55.272Z,32.30
2017-08-21T14:56:23.383Z,32.30
2017-08-21T14:58:51.548Z,32.30
2017-08-21T15:04:07.080Z,32.20
2017-08-21T15:06:35.356Z,32.20
2017-08-21T15:09:03.912Z,32.20
2017-08-21T15:11:32.056Z,32.20
2017-08-21T15:14:00.244Z,32.10
2017-08-21T15:16:29.084Z,32.10
2017-08-21T15:18:57.216Z,32.10
2017-08-21T15:21:25.364Z,32.00
2017-08-21T15:23:53.504Z,31.90
2017-08-21T15:26:21.652Z,31.80
2017-08-21T15:28:49.781Z,31.70
2017-08-21T15:31:17.937Z,31.60
2017-08-21T15:33:46.070Z,31.60
2017-08-21T15:36:14.257Z,31.60
2017-08-21T15:38:42.448Z,31.60
2017-08-21T15:41:11.031Z,31.50
2017-08-21T15:43:39.140Z,31.50
2017-08-21T15:46:07.285Z,31.50
2017-08-21T15:48:35.409Z,31.50
2017-08-21T15:51:03.563Z,31.50
2017-08-21T15:53:31.692Z,31.50
2017-08-21T15:56:00.744Z,31.60
2017-08-21T15:58:28.914Z,31.50
2017-08-21T16:00:57.049Z,31.50
2017-08-21T16:03:25.196Z,31.40
2017-08-21T16:05:53.344Z,31.40
2017-08-21T16:08:21.472Z,31.30
2017-08-21T16:10:49.617Z,31.30
2017-08-21T16:13:17.764Z,31.30
2017-08-21T16:15:45.892Z,31.30
2017-08-21T16:18:14.764Z,31.30
2017-08-21T16:20:42.895Z,31.20
2017-08-21T16:23:11.041Z,31.20
2017-08-21T16:25:39.188Z,31.20
2017-08-21T16:28:07.331Z,31.10
2017-08-21T16:30:35.472Z,31.00
2017-08-21T16:33:03.618Z,31.00
2017-08-21T16:35:31.749Z,30.90
2017-08-21T16:37:59.907Z,30.90
2017-08-21T16:40:28.061Z,30.90
2017-08-21T16:42:56.185Z,30.80
2017-08-21T16:45:24.300Z,30.70
2017-08-21T16:47:52.480Z,30.70
2017-08-21T16:50:20.628Z,30.70
2017-08-21T16:52:48.772Z,30.60
2017-08-21T16:55:16.912Z,30.60
2017-08-21T16:57:45.041Z,30.60
2017-08-21T17:00:13.188Z,30.50
2017-08-21T17:02:41.355Z,30.50
2017-08-21T17:05:09.491Z,30.40
2017-08-21T17:07:37.628Z,30.30
2017-08-21T17:10:05.839Z,30.30
2017-08-21T17:12:33.992Z,30.20
2017-08-21T17:15:02.352Z,30.10
2017-08-21T17:17:30.464Z,30.10
2017-08-21T17:19:58.588Z,30.00
2017-08-21T17:22:26.720Z,29.90
2017-08-21T17:24:54.860Z,29.80
2017-08-21T17:27:23.004Z,29.70
2017-08-21T17:29:51.154Z,29.60
2017-08-21T17:32:19.280Z,29.50
2017-08-21T17:34:47.397Z,29.40
2017-08-21T17:37:15.509Z,29.40
2017-08-21T17:39:43.628Z,29.30
2017-08-21T17:42:11.756Z,29.20
2017-08-21T17:44:40.484Z,29.10
2017-08-21T17:47:08.628Z,29.00
2017-08-21T17:49:36.764Z,28.90
2017-08-21T17:52:04.892Z,28.90
2017-08-21T17:54:33.016Z,28.80
2017-08-21T17:57:01.156Z,28.70
2017-08-21T17:59:29.336Z,28.60
2017-08-21T18:01:57.468Z,28.60
2017-08-21T18:04:25.592Z,28.50
2017-08-21T18:06:53.716Z,28.50
2017-08-21T18:09:21.862Z,28.40
2017-08-21T18:11:50.049Z,28.30
2017-08-21T18:14:18.179Z,28.30
2017-08-21T18:16:46.309Z,28.20
2017-08-21T18:19:14.448Z,28.10
2017-08-21T18:21:42.584Z,28.10
2017-08-21T18:24:10.707Z,28.00
2017-08-21T18:26:39.351Z,27.90
2017-08-21T18:29:07.498Z,27.90
2017-08-21T18:31:35.732Z,27.80
2017-08-21T18:34:03.869Z,27.80
2017-08-21T18:36:32.376Z,27.70
2017-08-21T18:39:00.490Z,27.70
2017-08-21T18:41:28.620Z,27.60
2017-08-21T18:43:57.616Z,27.60
2017-08-21T18:46:25.761Z,27.50
2017-08-21T18:48:53.896Z,27.50
2017-08-21T18:51:22.048Z,27.50
2017-08-21T18:53:50.973Z,27.40
2017-08-21T18:56:19.108Z,27.30
2017-08-21T18:58:47.244Z,27.30
2017-08-21T19:03:54.120Z,27.20
2017-08-21T19:06:22.280Z,27.10
2017-08-21T19:08:50.580Z,27.10
2017-08-21T19:11:19.472Z,27.00
2017-08-21T19:13:47.598Z,27.00
2017-08-21T19:16:15.849Z,27.00
2017-08-21T19:18:44.029Z,27.00
2017-08-21T19:21:12.154Z,27.00
2017-08-21T19:23:40.300Z,27.00
2017-08-21T19:26:08.437Z,26.90
2017-08-21T19:28:36.576Z,26.90
2017-08-21T19:31:04.696Z,26.80
2017-08-21T19:33:32.844Z,26.80
2017-08-21T19:36:00.998Z,26.70
2017-08-21T19:38:29.119Z,26.70
2017-08-21T19:40:57.268Z,26.70
2017-08-21T19:43:26.612Z,26.60
2017-08-21T19:45:54.749Z,26.60
2017-08-21T19:48:22.889Z,26.50
2017-08-21T19:50:51.025Z,26.50
2017-08-21T19:53:19.160Z,26.50
2017-08-21T19:55:47.296Z,26.50
2017-08-21T19:58:15.420Z,26.40
2017-08-21T20:00:43.640Z,26.40
2017-08-21T20:03:11.796Z,26.30
2017-08-21T20:05:39.936Z,26.30
2017-08-21T20:08:08.148Z,26.30
2017-08-21T20:10:36.301Z,26.30
2017-08-21T20:13:04.437Z,26.30
2017-08-21T20:15:32.640Z,26.20
2017-08-21T20:18:00.779Z,26.20
2017-08-21T20:20:28.921Z,26.20
2017-08-21T20:22:57.036Z,26.20
2017-08-21T20:25:25.193Z,26.20
2017-08-21T20:27:53.379Z,26.10
2017-08-21T20:30:21.531Z,26.10
2017-08-21T20:32:49.680Z,26.10
2017-08-21T20:35:18.040Z,26.10
2017-08-21T20:37:46.172Z,26.10
2017-08-21T20:40:14.308Z,26.00
2017-08-21T20:42:42.855Z,26.00
2017-08-21T20:45:11.576Z,26.00
2017-08-21T20:47:39.713Z,25.90
2017-08-21T20:50:07.831Z,25.90
2017-08-21T20:52:36.000Z,25.90
2017-08-21T20:55:04.131Z,25.90
2017-08-21T20:57:32.273Z,25.90
2017-08-21T21:00:00.418Z,25.80
2017-08-21T21:02:28.536Z,25.80
2017-08-21T21:04:56.684Z,25.90
2017-08-21T21:07:24.804Z,25.80
2017-08-21T21:09:52.929Z,25.80
2017-08-21T21:12:21.050Z,25.70
2017-08-21T21:14:49.188Z,25.70
2017-08-21T21:17:17.352Z,25.70
2017-08-21T21:19:45.486Z,25.70
2017-08-21T21:22:13.612Z,25.70
2017-08-21T21:24:42.449Z,25.80
2017-08-21T21:27:11.187Z,25.70
2017-08-21T21:29:39.352Z,25.70
2017-08-21T21:32:07.530Z,25.70
2017-08-21T21:34:35.670Z,25.70
2017-08-21T21:37:03.828Z,25.70
2017-08-21T21:39:32.581Z,25.70
2017-08-21T21:42:00.724Z,25.70
2017-08-21T21:44:28.872Z,25.60
2017-08-21T21:46:57.005Z,25.60
2017-08-21T21:49:25.195Z,25.60
2017-08-21T21:51:53.312Z,25.60
2017-08-21T21:54:21.525Z,25.50
2017-08-21T21:56:49.659Z,25.50
2017-08-21T21:59:17.844Z,25.50
2017-08-21T22:01:45.960Z,25.50
2017-08-21T22:04:14.188Z,25.40
2017-08-21T22:06:42.322Z,25.40
2017-08-21T22:09:10.445Z,25.40
2017-08-21T22:11:38.561Z,25.40
2017-08-21T22:14:06.680Z,25.40
2017-08-21T22:16:34.813Z,25.40
2017-08-21T22:19:03.456Z,25.40
2017-08-21T22:21:31.585Z,25.30
2017-08-21T22:23:59.707Z,25.30
2017-08-21T22:26:27.828Z,25.30
2017-08-21T22:28:55.983Z,25.30
2017-08-21T22:31:24.136Z,25.30
2017-08-21T22:33:52.304Z,25.30
2017-08-21T22:36:20.452Z,25.30
2017-08-21T22:38:48.593Z,25.30
2017-08-21T22:41:16.738Z,25.30
2017-08-21T22:43:44.889Z,25.20
2017-08-21T22:46:13.016Z,25.20
2017-08-21T22:48:41.172Z,25.20
2017-08-21T22:51:09.325Z,25.20
2017-08-21T22:53:37.467Z,25.20
2017-08-21T22:56:05.769Z,25.10
2017-08-21T22:58:33.892Z,25.20
2017-08-21T23:01:02.032Z,25.10
2017-08-21T23:03:30.171Z,25.10
2017-08-21T23:05:58.331Z,25.10
2017-08-21T23:08:26.504Z,25.10
2017-08-21T23:10:54.619Z,25.10
2017-08-21T23:13:22.742Z,25.00
2017-08-21T23:15:50.873Z,25.00
2017-08-21T23:18:19.039Z,25.00
2017-08-21T23:20:47.179Z,25.00
2017-08-21T23:23:15.388Z,25.00
2017-08-21T23:25:43.543Z,25.00
2017-08-21T23:28:11.692Z,24.90
2017-08-21T23:30:39.865Z,24.90
2017-08-21T23:33:08.015Z,24.90
2017-08-21T23:35:36.168Z,24.90
2017-08-21T23:38:04.296Z,24.90
2017-08-21T23:40:32.444Z,24.90
2017-08-21T23:43:00.564Z,24.90
2017-08-21T23:45:28.721Z,24.90
2017-08-21T23:47:56.860Z,24.80
2017-08-21T23:50:25.004Z,24.80
2017-08-21T23:52:53.797Z,24.80
2017-08-21T23:55:21.917Z,24.80
2017-08-21T23:57:50.044Z,24.80
